sensor_id;sensor_type;location;lat;lon;timestamp;temperature;humidity
33011;DHT22;19370;48.562;9.196;2022-07-29T00:00:07;19.60;99.90
33011;DHT22;19370;48.562;9.196;2022-07-29T00:02:34;19.60;99.90
33011;DHT22;19370;48.562;9.196;2022-07-29T00:05:00;19.60;99.90
33011;DHT22;19370;48.562;9.196;2022-07-29T00:07:26;19.50;99.90
33011;DHT22;19370;48.562;9.196;2022-07-29T00:09:52;19.50;99.90
33011;DHT22;19370;48.562;9.196;2022-07-29T00:12:19;19.50;99.90
33011;DHT22;19370;48.562;9.196;2022-07-29T00:14:45;19.50;99.90
33011;DHT22;19370;48.562;9.196;2022-07-29T00:17:11;19.50;99.90
33011;DHT22;19370;48.562;9.196;2022-07-29T00:19:37;19.50;99.90
33011;DHT22;19370;48.562;9.196;2022-07-29T00:22:03;19.40;99.90
33011;DHT22;19370;48.562;9.196;2022-07-29T00:24:29;19.20;99.90
33011;DHT22;19370;48.562;9.196;2022-07-29T00:26:55;19.20;99.90
33011;DHT22;19370;48.562;9.196;2022-07-29T00:29:22;19.20;99.90
33011;DHT22;19370;48.562;9.196;2022-07-29T00:31:47;19.10;99.90
33011;DHT22;19370;48.562;9.196;2022-07-29T00:34:14;19.10;99.90
33011;DHT22;19370;48.562;9.196;2022-07-29T00:36:58;19.00;99.90
33011;DHT22;19370;48.562;9.196;2022-07-29T00:39:24;19.00;99.90
33011;DHT22;19370;48.562;9.196;2022-07-29T00:41:50;18.90;99.90
33011;DHT22;19370;48.562;9.196;2022-07-29T00:44:16;18.60;99.90
33011;DHT22;19370;48.562;9.196;2022-07-29T00:46:41;18.60;99.90
33011;DHT22;19370;48.562;9.196;2022-07-29T00:49:08;18.70;99.90
33011;DHT22;19370;48.562;9.196;2022-07-29T00:51:37;18.70;99.90
33011;DHT22;19370;48.562;9.196;2022-07-29T00:54:04;18.70;99.90
33011;DHT22;19370;48.562;9.196;2022-07-29T00:56:31;18.70;99.90
33011;DHT22;19370;48.562;9.196;2022-07-29T00:58:59;18.70;99.90
33011;DHT22;19370;48.562;9.196;2022-07-29T01:01:25;18.70;99.90
33011;DHT22;19370;48.562;9.196;2022-07-29T01:03:51;18.70;99.90
33011;DHT22;19370;48.562;9.196;2022-07-29T01:06:18;18.60;99.90
33011;DHT22;19370;48.562;9.196;2022-07-29T01:08:45;18.60;99.90
33011;DHT22;19370;48.562;9.196;2022-07-29T01:11:11;18.60;99.90
33011;DHT22;19370;48.562;9.196;2022-07-29T01:13:37;18.70;99.90
33011;DHT22;19370;48.562;9.196;2022-07-29T01:16:09;18.60;99.90
33011;DHT22;19370;48.562;9.196;2022-07-29T01:18:41;18.70;99.90
33011;DHT22;19370;48.562;9.196;2022-07-29T01:25:09;18.80;99.90
33011;DHT22;19370;48.562;9.196;2022-07-29T01:29:49;18.70;99.90
33011;DHT22;19370;48.562;9.196;2022-07-29T01:32:26;18.60;99.90
33011;DHT22;19370;48.562;9.196;2022-07-29T01:35:00;18.60;99.90
33011;DHT22;19370;48.562;9.196;2022-07-29T01:37:42;18.60;99.90
33011;DHT22;19370;48.562;9.196;2022-07-29T01:40:26;18.50;99.90
33011;DHT22;19370;48.562;9.196;2022-07-29T01:42:56;18.50;99.90
33011;DHT22;19370;48.562;9.196;2022-07-29T01:45:44;18.50;99.90
33011;DHT22;19370;48.562;9.196;2022-07-29T01:48:18;18.40;99.90
33011;DHT22;19370;48.562;9.196;2022-07-29T01:51:05;18.40;99.90
33011;DHT22;19370;48.562;9.196;2022-07-29T01:53:37;18.40;99.90
33011;DHT22;19370;48.562;9.196;2022-07-29T01:56:06;18.50;99.90
33011;DHT22;19370;48.562;9.196;2022-07-29T01:58:35;18.50;99.90
33011;DHT22;19370;48.562;9.196;2022-07-29T02:01:03;18.60;99.90
33011;DHT22;19370;48.562;9.196;2022-07-29T02:03:31;18.50;99.90
33011;DHT22;19370;48.562;9.196;2022-07-29T02:05:58;18.50;99.90
33011;DHT22;19370;48.562;9.196;2022-07-29T02:08:26;18.50;99.90
33011;DHT22;19370;48.562;9.196;2022-07-29T02:10:52;18.50;99.90
33011;DHT22;19370;48.562;9.196;2022-07-29T02:13:21;18.40;99.90
33011;DHT22;19370;48.562;9.196;2022-07-29T02:15:50;18.40;99.90
33011;DHT22;19370;48.562;9.196;2022-07-29T02:18:18;18.50;99.90
33011;DHT22;19370;48.562;9.196;2022-07-29T02:20:49;18.50;99.90
33011;DHT22;19370;48.562;9.196;2022-07-29T02:23:19;18.40;99.90
33011;DHT22;19370;48.562;9.196;2022-07-29T02:25:55;18.30;99.90
33011;DHT22;19370;48.562;9.196;2022-07-29T02:28:24;18.40;99.90
33011;DHT22;19370;48.562;9.196;2022-07-29T02:30:56;18.40;99.90
33011;DHT22;19370;48.562;9.196;2022-07-29T02:33:24;18.30;99.90
33011;DHT22;19370;48.562;9.196;2022-07-29T02:35:51;18.40;99.90
33011;DHT22;19370;48.562;9.196;2022-07-29T02:38:18;18.50;99.90
33011;DHT22;19370;48.562;9.196;2022-07-29T02:41:08;18.60;99.90
33011;DHT22;19370;48.562;9.196;2022-07-29T02:43:37;18.60;99.90
33011;DHT22;19370;48.562;9.196;2022-07-29T02:46:11;18.60;99.90
33011;DHT22;19370;48.562;9.196;2022-07-29T02:48:41;18.60;99.90
33011;DHT22;19370;48.562;9.196;2022-07-29T02:51:16;18.50;99.90
33011;DHT22;19370;48.562;9.196;2022-07-29T02:53:49;18.50;99.90
33011;DHT22;19370;48.562;9.196;2022-07-29T02:56:18;18.50;99.90
33011;DHT22;19370;48.562;9.196;2022-07-29T02:58:54;18.60;99.90
33011;DHT22;19370;48.562;9.196;2022-07-29T03:01:23;18.50;99.90
33011;DHT22;19370;48.562;9.196;2022-07-29T03:03:50;18.70;99.90
33011;DHT22;19370;48.562;9.196;2022-07-29T03:06:18;18.70;99.90
33011;DHT22;19370;48.562;9.196;2022-07-29T03:08:45;18.70;99.90
33011;DHT22;19370;48.562;9.196;2022-07-29T03:11:11;18.70;99.90
33011;DHT22;19370;48.562;9.196;2022-07-29T03:13:38;18.60;99.90
33011;DHT22;19370;48.562;9.196;2022-07-29T03:16:05;18.50;99.90
33011;DHT22;19370;48.562;9.196;2022-07-29T03:18:31;18.40;99.90
33011;DHT22;19370;48.562;9.196;2022-07-29T03:20:57;18.30;99.90
33011;DHT22;19370;48.562;9.196;2022-07-29T03:23:24;18.30;99.90
33011;DHT22;19370;48.562;9.196;2022-07-29T03:25:51;18.40;99.90
33011;DHT22;19370;48.562;9.196;2022-07-29T03:28:17;18.30;99.90
33011;DHT22;19370;48.562;9.196;2022-07-29T03:30:43;18.30;99.90
33011;DHT22;19370;48.562;9.196;2022-07-29T03:33:09;18.30;99.90
33011;DHT22;19370;48.562;9.196;2022-07-29T03:35:38;18.30;99.90
33011;DHT22;19370;48.562;9.196;2022-07-29T03:38:04;18.40;99.90
33011;DHT22;19370;48.562;9.196;2022-07-29T03:40:38;18.40;99.90
33011;DHT22;19370;48.562;9.196;2022-07-29T03:43:07;18.40;99.90
33011;DHT22;19370;48.562;9.196;2022-07-29T03:45:34;18.40;99.90
33011;DHT22;19370;48.562;9.196;2022-07-29T03:48:05;18.50;99.90
33011;DHT22;19370;48.562;9.196;2022-07-29T03:50:33;18.40;99.90
33011;DHT22;19370;48.562;9.196;2022-07-29T03:52:59;18.40;99.90
33011;DHT22;19370;48.562;9.196;2022-07-29T03:55:26;18.50;99.90
33011;DHT22;19370;48.562;9.196;2022-07-29T03:57:54;18.50;99.90
33011;DHT22;19370;48.562;9.196;2022-07-29T04:00:22;18.40;99.90
33011;DHT22;19370;48.562;9.196;2022-07-29T04:02:49;18.40;99.90
33011;DHT22;19370;48.562;9.196;2022-07-29T04:05:15;18.40;99.90
33011;DHT22;19370;48.562;9.196;2022-07-29T04:07:44;18.40;99.90
33011;DHT22;19370;48.562;9.196;2022-07-29T04:10:10;18.40;99.90
33011;DHT22;19370;48.562;9.196;2022-07-29T04:12:36;18.40;99.90
33011;DHT22;19370;48.562;9.196;2022-07-29T04:15:03;18.40;99.90
33011;DHT22;19370;48.562;9.196;2022-07-29T04:17:29;18.50;99.90
33011;DHT22;19370;48.562;9.196;2022-07-29T04:19:55;18.50;99.90
33011;DHT22;19370;48.562;9.196;2022-07-29T04:22:20;18.50;99.90
33011;DHT22;19370;48.562;9.196;2022-07-29T04:24:46;18.50;99.90
33011;DHT22;19370;48.562;9.196;2022-07-29T04:27:12;18.50;99.90
33011;DHT22;19370;48.562;9.196;2022-07-29T04:29:37;18.50;99.90
33011;DHT22;19370;48.562;9.196;2022-07-29T04:32:03;18.50;99.90
33011;DHT22;19370;48.562;9.196;2022-07-29T04:34:29;18.60;99.90
33011;DHT22;19370;48.562;9.196;2022-07-29T04:36:55;18.60;99.90
33011;DHT22;19370;48.562;9.196;2022-07-29T04:39:24;18.60;99.90
33011;DHT22;19370;48.562;9.196;2022-07-29T04:41:50;18.60;99.90
33011;DHT22;19370;48.562;9.196;2022-07-29T04:44:16;18.60;99.90
33011;DHT22;19370;48.562;9.196;2022-07-29T04:46:41;18.60;99.90
33011;DHT22;19370;48.562;9.196;2022-07-29T04:49:07;18.60;99.90
33011;DHT22;19370;48.562;9.196;2022-07-29T04:51:34;18.60;99.90
33011;DHT22;19370;48.562;9.196;2022-07-29T04:53:59;18.70;99.90
33011;DHT22;19370;48.562;9.196;2022-07-29T04:56:25;18.70;99.90
33011;DHT22;19370;48.562;9.196;2022-07-29T04:58:51;18.70;99.90
33011;DHT22;19370;48.562;9.196;2022-07-29T05:01:17;18.80;99.90
33011;DHT22;19370;48.562;9.196;2022-07-29T05:03:44;18.90;99.90
33011;DHT22;19370;48.562;9.196;2022-07-29T05:06:10;18.90;99.90
33011;DHT22;19370;48.562;9.196;2022-07-29T05:08:37;18.90;99.90
33011;DHT22;19370;48.562;9.196;2022-07-29T05:11:03;18.90;99.90
33011;DHT22;19370;48.562;9.196;2022-07-29T05:13:29;19.10;99.90
33011;DHT22;19370;48.562;9.196;2022-07-29T05:15:55;19.10;99.90
33011;DHT22;19370;48.562;9.196;2022-07-29T05:18:21;19.10;99.90
33011;DHT22;19370;48.562;9.196;2022-07-29T05:20:47;19.10;99.90
33011;DHT22;19370;48.562;9.196;2022-07-29T05:23:12;19.20;99.90
33011;DHT22;19370;48.562;9.196;2022-07-29T05:25:41;19.20;99.90
33011;DHT22;19370;48.562;9.196;2022-07-29T05:28:07;19.40;99.90
33011;DHT22;19370;48.562;9.196;2022-07-29T05:30:33;19.50;99.90
33011;DHT22;19370;48.562;9.196;2022-07-29T05:32:58;19.60;99.90
33011;DHT22;19370;48.562;9.196;2022-07-29T05:35:24;19.60;99.90
33011;DHT22;19370;48.562;9.196;2022-07-29T05:37:50;19.60;99.90
33011;DHT22;19370;48.562;9.196;2022-07-29T05:40:16;19.60;99.90
33011;DHT22;19370;48.562;9.196;2022-07-29T05:42:41;19.50;99.90
33011;DHT22;19370;48.562;9.196;2022-07-29T05:45:07;19.60;99.90
33011;DHT22;19370;48.562;9.196;2022-07-29T05:47:33;19.60;99.90
33011;DHT22;19370;48.562;9.196;2022-07-29T05:49:59;19.70;99.90
33011;DHT22;19370;48.562;9.196;2022-07-29T05:52:25;19.80;99.90
33011;DHT22;19370;48.562;9.196;2022-07-29T05:54:51;19.90;99.90
33011;DHT22;19370;48.562;9.196;2022-07-29T05:57:18;19.70;99.90
33011;DHT22;19370;48.562;9.196;2022-07-29T05:59:44;19.50;99.90
33011;DHT22;19370;48.562;9.196;2022-07-29T06:02:09;19.50;99.90
33011;DHT22;19370;48.562;9.196;2022-07-29T06:04:35;19.50;99.90
33011;DHT22;19370;48.562;9.196;2022-07-29T06:07:01;19.50;99.90
33011;DHT22;19370;48.562;9.196;2022-07-29T06:09:27;19.50;99.90
33011;DHT22;19370;48.562;9.196;2022-07-29T06:11:52;19.50;99.90
33011;DHT22;19370;48.562;9.196;2022-07-29T06:14:18;19.40;99.90
33011;DHT22;19370;48.562;9.196;2022-07-29T06:16:44;19.40;99.90
33011;DHT22;19370;48.562;9.196;2022-07-29T06:19:10;19.50;99.90
33011;DHT22;19370;48.562;9.196;2022-07-29T06:21:36;19.60;99.90
33011;DHT22;19370;48.562;9.196;2022-07-29T06:24:05;19.70;99.90
33011;DHT22;19370;48.562;9.196;2022-07-29T06:26:31;19.70;99.90
33011;DHT22;19370;48.562;9.196;2022-07-29T06:28:56;19.60;99.90
33011;DHT22;19370;48.562;9.196;2022-07-29T06:31:22;19.50;99.90
33011;DHT22;19370;48.562;9.196;2022-07-29T06:33:48;19.50;99.90
33011;DHT22;19370;48.562;9.196;2022-07-29T06:36:13;19.60;99.90
33011;DHT22;19370;48.562;9.196;2022-07-29T06:38:39;19.80;99.90
33011;DHT22;19370;48.562;9.196;2022-07-29T06:41:08;19.80;99.90
33011;DHT22;19370;48.562;9.196;2022-07-29T06:43:41;19.80;99.90
33011;DHT22;19370;48.562;9.196;2022-07-29T06:46:10;20.00;99.90
33011;DHT22;19370;48.562;9.196;2022-07-29T06:48:36;19.80;99.90
33011;DHT22;19370;48.562;9.196;2022-07-29T06:51:03;19.90;99.90
33011;DHT22;19370;48.562;9.196;2022-07-29T06:53:30;20.00;99.90
33011;DHT22;19370;48.562;9.196;2022-07-29T06:55:56;20.00;99.90
33011;DHT22;19370;48.562;9.196;2022-07-29T06:58:23;20.10;99.90
33011;DHT22;19370;48.562;9.196;2022-07-29T07:00:49;20.20;99.90
33011;DHT22;19370;48.562;9.196;2022-07-29T07:03:16;20.30;99.90
33011;DHT22;19370;48.562;9.196;2022-07-29T07:05:43;20.60;99.90
33011;DHT22;19370;48.562;9.196;2022-07-29T07:08:09;20.80;99.90
33011;DHT22;19370;48.562;9.196;2022-07-29T07:10:35;20.80;99.90
33011;DHT22;19370;48.562;9.196;2022-07-29T07:13:02;20.90;99.90
33011;DHT22;19370;48.562;9.196;2022-07-29T07:15:28;20.90;99.90
33011;DHT22;19370;48.562;9.196;2022-07-29T07:17:54;21.00;99.90
33011;DHT22;19370;48.562;9.196;2022-07-29T07:20:20;21.00;99.90
33011;DHT22;19370;48.562;9.196;2022-07-29T07:22:45;21.00;99.90
33011;DHT22;19370;48.562;9.196;2022-07-29T07:25:12;21.00;99.90
33011;DHT22;19370;48.562;9.196;2022-07-29T07:27:38;20.90;99.90
33011;DHT22;19370;48.562;9.196;2022-07-29T07:30:05;20.80;99.90
33011;DHT22;19370;48.562;9.196;2022-07-29T07:32:35;20.80;99.90
33011;DHT22;19370;48.562;9.196;2022-07-29T07:35:01;20.80;99.90
33011;DHT22;19370;48.562;9.196;2022-07-29T07:37:27;20.90;99.90
33011;DHT22;19370;48.562;9.196;2022-07-29T07:39:53;20.90;99.90
33011;DHT22;19370;48.562;9.196;2022-07-29T07:42:20;20.90;99.90
33011;DHT22;19370;48.562;9.196;2022-07-29T07:44:45;21.20;99.90
33011;DHT22;19370;48.562;9.196;2022-07-29T07:47:14;21.00;99.90
33011;DHT22;19370;48.562;9.196;2022-07-29T07:49:39;21.20;99.90
33011;DHT22;19370;48.562;9.196;2022-07-29T07:52:05;21.00;99.90
33011;DHT22;19370;48.562;9.196;2022-07-29T07:54:32;21.10;99.90
33011;DHT22;19370;48.562;9.196;2022-07-29T07:56:57;21.00;99.90
33011;DHT22;19370;48.562;9.196;2022-07-29T07:59:23;21.20;99.90
33011;DHT22;19370;48.562;9.196;2022-07-29T08:01:49;21.40;99.90
33011;DHT22;19370;48.562;9.196;2022-07-29T08:04:15;21.50;99.90
33011;DHT22;19370;48.562;9.196;2022-07-29T08:06:41;21.70;99.90
33011;DHT22;19370;48.562;9.196;2022-07-29T08:09:07;21.70;99.90
33011;DHT22;19370;48.562;9.196;2022-07-29T08:11:33;21.90;99.90
33011;DHT22;19370;48.562;9.196;2022-07-29T08:13:58;22.00;99.90
33011;DHT22;19370;48.562;9.196;2022-07-29T08:16:24;22.10;99.90
33011;DHT22;19370;48.562;9.196;2022-07-29T08:18:51;22.10;99.90
33011;DHT22;19370;48.562;9.196;2022-07-29T08:21:17;22.10;99.90
33011;DHT22;19370;48.562;9.196;2022-07-29T08:23:44;22.20;99.90
33011;DHT22;19370;48.562;9.196;2022-07-29T08:26:19;22.40;99.90
33011;DHT22;19370;48.562;9.196;2022-07-29T08:28:46;22.40;99.90
33011;DHT22;19370;48.562;9.196;2022-07-29T08:31:14;22.40;99.90
33011;DHT22;19370;48.562;9.196;2022-07-29T08:33:41;22.50;99.90
33011;DHT22;19370;48.562;9.196;2022-07-29T08:36:07;22.70;99.90
33011;DHT22;19370;48.562;9.196;2022-07-29T08:38:33;22.80;99.90
33011;DHT22;19370;48.562;9.196;2022-07-29T08:41:00;23.00;99.90
33011;DHT22;19370;48.562;9.196;2022-07-29T08:43:28;23.00;99.90
33011;DHT22;19370;48.562;9.196;2022-07-29T08:45:54;23.10;99.90
33011;DHT22;19370;48.562;9.196;2022-07-29T08:48:23;23.20;99.90
33011;DHT22;19370;48.562;9.196;2022-07-29T08:50:55;23.10;99.90
33011;DHT22;19370;48.562;9.196;2022-07-29T08:53:24;23.30;99.90
33011;DHT22;19370;48.562;9.196;2022-07-29T08:55:53;23.40;99.90
33011;DHT22;19370;48.562;9.196;2022-07-29T08:58:18;23.50;99.90
33011;DHT22;19370;48.562;9.196;2022-07-29T09:00:55;23.70;99.90
33011;DHT22;19370;48.562;9.196;2022-07-29T09:03:23;23.60;99.90
33011;DHT22;19370;48.562;9.196;2022-07-29T09:05:50;23.70;99.90
33011;DHT22;19370;48.562;9.196;2022-07-29T09:08:17;24.10;99.90
33011;DHT22;19370;48.562;9.196;2022-07-29T09:10:44;24.40;99.90
33011;DHT22;19370;48.562;9.196;2022-07-29T09:13:09;24.30;99.90
33011;DHT22;19370;48.562;9.196;2022-07-29T09:15:35;24.30;99.90
33011;DHT22;19370;48.562;9.196;2022-07-29T09:18:01;24.30;99.90
33011;DHT22;19370;48.562;9.196;2022-07-29T09:20:28;24.40;99.90
33011;DHT22;19370;48.562;9.196;2022-07-29T09:23:13;24.50;99.90
33011;DHT22;19370;48.562;9.196;2022-07-29T09:25:40;25.10;99.90
33011;DHT22;19370;48.562;9.196;2022-07-29T09:28:10;25.20;99.90
33011;DHT22;19370;48.562;9.196;2022-07-29T09:30:54;25.50;99.90
33011;DHT22;19370;48.562;9.196;2022-07-29T09:33:21;25.90;99.90
33011;DHT22;19370;48.562;9.196;2022-07-29T09:36:03;25.80;99.90
33011;DHT22;19370;48.562;9.196;2022-07-29T09:38:30;25.60;99.90
33011;DHT22;19370;48.562;9.196;2022-07-29T09:40:58;25.70;99.90
33011;DHT22;19370;48.562;9.196;2022-07-29T09:43:24;25.70;99.90
33011;DHT22;19370;48.562;9.196;2022-07-29T09:45:50;25.60;99.90
33011;DHT22;19370;48.562;9.196;2022-07-29T09:48:18;25.30;99.90
33011;DHT22;19370;48.562;9.196;2022-07-29T09:50:45;25.30;99.90
33011;DHT22;19370;48.562;9.196;2022-07-29T09:53:30;25.10;99.90
33011;DHT22;19370;48.562;9.196;2022-07-29T09:55:56;24.90;99.90
33011;DHT22;19370;48.562;9.196;2022-07-29T09:58:22;25.10;99.90
33011;DHT22;19370;48.562;9.196;2022-07-29T10:00:50;24.90;99.90
33011;DHT22;19370;48.562;9.196;2022-07-29T10:03:17;24.90;99.90
33011;DHT22;19370;48.562;9.196;2022-07-29T10:05:44;24.90;99.90
33011;DHT22;19370;48.562;9.196;2022-07-29T10:08:11;25.00;99.90
33011;DHT22;19370;48.562;9.196;2022-07-29T10:10:42;25.50;99.90
33011;DHT22;19370;48.562;9.196;2022-07-29T10:13:14;25.90;99.90
33011;DHT22;19370;48.562;9.196;2022-07-29T10:15:42;26.30;99.90
33011;DHT22;19370;48.562;9.196;2022-07-29T10:18:10;26.60;98.70
33011;DHT22;19370;48.562;9.196;2022-07-29T10:20:36;26.90;98.50
33011;DHT22;19370;48.562;9.196;2022-07-29T10:23:04;27.20;94.70
33011;DHT22;19370;48.562;9.196;2022-07-29T10:25:30;27.00;95.10
33011;DHT22;19370;48.562;9.196;2022-07-29T10:27:56;27.30;94.20
33011;DHT22;19370;48.562;9.196;2022-07-29T10:30:24;27.50;92.00
33011;DHT22;19370;48.562;9.196;2022-07-29T10:33:16;28.00;92.00
33011;DHT22;19370;48.562;9.196;2022-07-29T10:36:04;27.70;91.20
33011;DHT22;19370;48.562;9.196;2022-07-29T10:46:25;26.50;93.40
33011;DHT22;19370;48.562;9.196;2022-07-29T10:49:12;26.50;92.70
33011;DHT22;19370;48.562;9.196;2022-07-29T10:52:18;26.40;93.40
33011;DHT22;19370;48.562;9.196;2022-07-29T10:54:47;26.30;92.50
33011;DHT22;19370;48.562;9.196;2022-07-29T10:59:46;26.10;93.80
33011;DHT22;19370;48.562;9.196;2022-07-29T11:02:45;26.10;93.10
33011;DHT22;19370;48.562;9.196;2022-07-29T11:05:15;26.10;92.70
33011;DHT22;19370;48.562;9.196;2022-07-29T11:10:43;26.00;93.80
33011;DHT22;19370;48.562;9.196;2022-07-29T11:13:09;26.30;94.20
33011;DHT22;19370;48.562;9.196;2022-07-29T11:15:55;26.20;93.00
33011;DHT22;19370;48.562;9.196;2022-07-29T11:18:21;26.00;92.90
33011;DHT22;19370;48.562;9.196;2022-07-29T11:20:50;26.00;92.20
33011;DHT22;19370;48.562;9.196;2022-07-29T11:23:34;26.10;91.10
33011;DHT22;19370;48.562;9.196;2022-07-29T11:28:53;26.30;92.20
33011;DHT22;19370;48.562;9.196;2022-07-29T11:34:25;25.80;93.40
33011;DHT22;19370;48.562;9.196;2022-07-29T11:39:37;24.40;96.10
33011;DHT22;19370;48.562;9.196;2022-07-29T11:47:37;23.90;97.70
33011;DHT22;19370;48.562;9.196;2022-07-29T11:50:05;24.00;97.90
33011;DHT22;19370;48.562;9.196;2022-07-29T11:52:38;25.00;98.50
33011;DHT22;19370;48.562;9.196;2022-07-29T11:55:22;25.70;98.70
33011;DHT22;19370;48.562;9.196;2022-07-29T11:57:50;26.20;98.50
33011;DHT22;19370;48.562;9.196;2022-07-29T12:02:53;26.50;98.50
33011;DHT22;19370;48.562;9.196;2022-07-29T12:05:19;26.30;98.20
33011;DHT22;19370;48.562;9.196;2022-07-29T12:07:46;26.00;99.00
33011;DHT22;19370;48.562;9.196;2022-07-29T12:10:12;26.10;99.20
33011;DHT22;19370;48.562;9.196;2022-07-29T12:12:38;25.90;99.90
33011;DHT22;19370;48.562;9.196;2022-07-29T12:15:15;25.90;99.10
33011;DHT22;19370;48.562;9.196;2022-07-29T12:17:43;26.00;98.50
33011;DHT22;19370;48.562;9.196;2022-07-29T12:20:10;25.60;98.40
33011;DHT22;19370;48.562;9.196;2022-07-29T12:22:37;25.40;98.60
33011;DHT22;19370;48.562;9.196;2022-07-29T12:25:14;25.10;98.30
33011;DHT22;19370;48.562;9.196;2022-07-29T12:27:42;24.70;98.40
33011;DHT22;19370;48.562;9.196;2022-07-29T12:30:14;24.60;99.50
33011;DHT22;19370;48.562;9.196;2022-07-29T12:32:47;24.60;99.40
33011;DHT22;19370;48.562;9.196;2022-07-29T12:35:15;24.50;99.20
33011;DHT22;19370;48.562;9.196;2022-07-29T12:37:44;24.40;99.30
33011;DHT22;19370;48.562;9.196;2022-07-29T12:40:13;24.40;99.80
33011;DHT22;19370;48.562;9.196;2022-07-29T12:42:40;24.30;99.80
33011;DHT22;19370;48.562;9.196;2022-07-29T12:45:08;24.40;99.90
33011;DHT22;19370;48.562;9.196;2022-07-29T12:47:33;24.50;99.20
33011;DHT22;19370;48.562;9.196;2022-07-29T12:50:16;24.50;99.90
33011;DHT22;19370;48.562;9.196;2022-07-29T12:52:43;24.70;99.90
33011;DHT22;19370;48.562;9.196;2022-07-29T12:55:10;24.90;99.40
33011;DHT22;19370;48.562;9.196;2022-07-29T12:57:49;25.20;98.70
33011;DHT22;19370;48.562;9.196;2022-07-29T13:00:23;25.50;98.80
33011;DHT22;19370;48.562;9.196;2022-07-29T13:02:57;25.70;99.90
33011;DHT22;19370;48.562;9.196;2022-07-29T13:05:23;25.90;99.60
33011;DHT22;19370;48.562;9.196;2022-07-29T13:07:50;26.00;97.50
33011;DHT22;19370;48.562;9.196;2022-07-29T13:10:18;26.10;98.10
33011;DHT22;19370;48.562;9.196;2022-07-29T13:13:11;25.90;97.80
33011;DHT22;19370;48.562;9.196;2022-07-29T13:15:42;25.70;97.60
33011;DHT22;19370;48.562;9.196;2022-07-29T13:18:28;25.40;97.90
33011;DHT22;19370;48.562;9.196;2022-07-29T13:20:54;25.30;97.10
33011;DHT22;19370;48.562;9.196;2022-07-29T13:23:20;25.20;98.20
33011;DHT22;19370;48.562;9.196;2022-07-29T13:25:45;25.10;97.90
33011;DHT22;19370;48.562;9.196;2022-07-29T13:28:11;24.90;97.50
33011;DHT22;19370;48.562;9.196;2022-07-29T13:30:37;24.50;97.60
33011;DHT22;19370;48.562;9.196;2022-07-29T13:33:04;24.30;98.40
33011;DHT22;19370;48.562;9.196;2022-07-29T13:35:30;24.00;99.90
33011;DHT22;19370;48.562;9.196;2022-07-29T13:37:56;23.70;99.90
33011;DHT22;19370;48.562;9.196;2022-07-29T13:40:21;23.50;99.90
33011;DHT22;19370;48.562;9.196;2022-07-29T13:42:47;23.30;99.90
33011;DHT22;19370;48.562;9.196;2022-07-29T13:45:13;23.00;99.90
33011;DHT22;19370;48.562;9.196;2022-07-29T13:47:39;22.90;99.90
33011;DHT22;19370;48.562;9.196;2022-07-29T13:50:07;22.80;99.90
33011;DHT22;19370;48.562;9.196;2022-07-29T13:52:35;22.80;99.90
33011;DHT22;19370;48.562;9.196;2022-07-29T13:55:01;22.80;99.90
33011;DHT22;19370;48.562;9.196;2022-07-29T13:57:28;22.70;99.90
33011;DHT22;19370;48.562;9.196;2022-07-29T13:59:54;22.70;99.90
33011;DHT22;19370;48.562;9.196;2022-07-29T14:02:20;22.60;99.90
33011;DHT22;19370;48.562;9.196;2022-07-29T14:04:46;22.70;99.90
33011;DHT22;19370;48.562;9.196;2022-07-29T14:07:12;22.60;99.90
33011;DHT22;19370;48.562;9.196;2022-07-29T14:09:38;22.50;99.90
33011;DHT22;19370;48.562;9.196;2022-07-29T14:12:04;22.30;99.90
33011;DHT22;19370;48.562;9.196;2022-07-29T14:14:29;22.30;99.90
33011;DHT22;19370;48.562;9.196;2022-07-29T14:16:57;22.20;99.90
33011;DHT22;19370;48.562;9.196;2022-07-29T14:19:22;22.20;99.90
33011;DHT22;19370;48.562;9.196;2022-07-29T14:21:48;22.30;99.90
33011;DHT22;19370;48.562;9.196;2022-07-29T14:24:14;22.40;99.90
33011;DHT22;19370;48.562;9.196;2022-07-29T14:26:39;22.40;99.90
33011;DHT22;19370;48.562;9.196;2022-07-29T14:29:05;22.50;99.90
33011;DHT22;19370;48.562;9.196;2022-07-29T14:31:33;22.60;99.90
33011;DHT22;19370;48.562;9.196;2022-07-29T14:33:59;22.70;99.90
33011;DHT22;19370;48.562;9.196;2022-07-29T14:36:25;22.70;99.90
33011;DHT22;19370;48.562;9.196;2022-07-29T14:38:51;22.70;99.90
33011;DHT22;19370;48.562;9.196;2022-07-29T14:41:16;22.80;99.90
33011;DHT22;19370;48.562;9.196;2022-07-29T14:43:42;22.80;99.90
33011;DHT22;19370;48.562;9.196;2022-07-29T14:46:08;22.70;99.90
33011;DHT22;19370;48.562;9.196;2022-07-29T14:48:36;22.70;99.90
33011;DHT22;19370;48.562;9.196;2022-07-29T14:51:02;22.70;99.90
33011;DHT22;19370;48.562;9.196;2022-07-29T14:53:28;22.70;99.90
33011;DHT22;19370;48.562;9.196;2022-07-29T14:55:54;22.50;99.90
33011;DHT22;19370;48.562;9.196;2022-07-29T14:58:20;22.40;99.90
33011;DHT22;19370;48.562;9.196;2022-07-29T15:00:47;22.20;99.90
33011;DHT22;19370;48.562;9.196;2022-07-29T15:03:13;22.20;99.90
33011;DHT22;19370;48.562;9.196;2022-07-29T15:05:39;22.30;99.90
33011;DHT22;19370;48.562;9.196;2022-07-29T15:08:08;22.30;99.90
33011;DHT22;19370;48.562;9.196;2022-07-29T15:10:33;22.30;99.90
33011;DHT22;19370;48.562;9.196;2022-07-29T15:13:00;22.40;99.90
33011;DHT22;19370;48.562;9.196;2022-07-29T15:15:25;22.30;99.90
33011;DHT22;19370;48.562;9.196;2022-07-29T15:17:51;22.30;99.90
33011;DHT22;19370;48.562;9.196;2022-07-29T15:20:17;22.30;99.90
33011;DHT22;19370;48.562;9.196;2022-07-29T15:22:43;22.40;99.90
33011;DHT22;19370;48.562;9.196;2022-07-29T15:25:10;22.50;99.90
33011;DHT22;19370;48.562;9.196;2022-07-29T15:27:36;22.50;99.90
33011;DHT22;19370;48.562;9.196;2022-07-29T15:30:03;22.50;99.90
33011;DHT22;19370;48.562;9.196;2022-07-29T15:32:29;22.50;99.90
33011;DHT22;19370;48.562;9.196;2022-07-29T15:34:55;22.60;99.90
33011;DHT22;19370;48.562;9.196;2022-07-29T15:37:21;22.60;99.90
33011;DHT22;19370;48.562;9.196;2022-07-29T15:39:46;22.70;99.90
33011;DHT22;19370;48.562;9.196;2022-07-29T15:42:12;22.70;99.90
33011;DHT22;19370;48.562;9.196;2022-07-29T15:44:38;22.70;99.90
33011;DHT22;19370;48.562;9.196;2022-07-29T15:47:03;22.60;99.90
33011;DHT22;19370;48.562;9.196;2022-07-29T15:49:34;22.70;99.90
33011;DHT22;19370;48.562;9.196;2022-07-29T15:52:03;22.70;99.90
33011;DHT22;19370;48.562;9.196;2022-07-29T15:54:32;22.70;99.90
33011;DHT22;19370;48.562;9.196;2022-07-29T15:56:58;22.80;99.90
33011;DHT22;19370;48.562;9.196;2022-07-29T15:59:25;22.80;99.90
33011;DHT22;19370;48.562;9.196;2022-07-29T16:01:51;22.90;99.90
33011;DHT22;19370;48.562;9.196;2022-07-29T16:04:18;22.90;99.90
33011;DHT22;19370;48.562;9.196;2022-07-29T16:06:44;23.00;99.90
33011;DHT22;19370;48.562;9.196;2022-07-29T16:09:10;23.10;99.90
33011;DHT22;19370;48.562;9.196;2022-07-29T16:11:36;23.20;99.90